Time;durP1;ratioP1;P1;durP2;ratioP2;P2;SDS_P1;SDS_P2;PMS_P1;PMS_P2;Temp;Humidity;BMP_temperature;BMP_pressure;BME280_temperature;BME280_humidity;BME280_pressure;Samples;Min_cycle;Max_cycle;Signal;HPM_P1;HPM_P2
2024/04/21 00:02:07;;;;;;;;;;;8.00;81.70;;;;;;5461156;26;19976;-73
2024/04/21 00:04:36;;;;;;;;;;;8.00;81.70;;;;;;5460088;26;19935;-73
2024/04/21 00:07:02;;;;;;;;;;;7.90;81.70;;;;;;5437675;26;19937;-74
2024/04/21 00:09:33;;;;;;;;;;;8.00;81.70;;;;;;5455452;26;20377;-74
2024/04/21 00:12:00;;;;;;;;;;;7.90;81.70;;;;;;5460327;26;19928;-73
2024/04/21 00:14:28;;;;;;;;;;;7.90;81.80;;;;;;5462164;26;19928;-73
2024/04/21 00:16:54;;;;;;;;;;;7.90;82.00;;;;;;5462728;26;19939;-72
2024/04/21 00:19:23;;;;;;;;;;;7.90;82.00;;;;;;5462176;26;19940;-74
2024/04/21 00:21:49;;;;;;;;;;;7.90;82.00;;;;;;5465625;26;19928;-73
2024/04/21 00:24:18;;;;;;;;;;;7.90;81.90;;;;;;5458749;26;19940;-73
2024/04/21 00:26:46;;;;;;;;;;;7.90;82.10;;;;;;5454353;26;19936;-74
2024/04/21 00:29:16;;;;;;;;;;;7.90;82.10;;;;;;5458834;26;19960;-74
2024/04/21 00:31:42;;;;;;;;;;;7.80;82.10;;;;;;5458021;26;21410;-74
2024/04/21 00:34:12;;;;;;;;;;;7.90;82.20;;;;;;5460114;26;20355;-72
2024/04/21 00:36:38;;;;;;;;;;;7.80;82.30;;;;;;5460974;26;19964;-73
2024/04/21 00:39:07;;;;;;;;;;;7.80;82.50;;;;;;5458561;26;19928;-73
2024/04/21 00:41:33;;;;;;;;;;;7.80;82.60;;;;;;5461394;26;20048;-73
2024/04/21 00:44:04;;;;;;;;;;;7.80;82.70;;;;;;5458544;26;19928;-73
2024/04/21 00:46:30;;;;;;;;;;;7.80;82.70;;;;;;5461599;26;19928;-72
2024/04/21 00:48:59;;;;;;;;;;;7.70;82.80;;;;;;5452669;26;20272;-73
2024/04/21 00:51:25;;;;;;;;;;;7.80;82.80;;;;;;5457758;26;20357;-73
2024/04/21 00:53:54;;;;;;;;;;;7.70;82.90;;;;;;5459283;26;19928;-73
2024/04/21 00:56:22;;;;;;;;;;;7.70;82.90;;;;;;5455547;26;19932;-73
2024/04/21 00:58:51;;;;;;;;;;;7.70;82.80;;;;;;5448031;26;20029;-72
2024/04/21 01:01:20;;;;;;;;;;;7.70;82.90;;;;;;5437438;26;20805;-63
2024/04/21 01:03:51;;;;;;;;;;;7.70;82.80;;;;;;5455886;26;19928;-63
2024/04/21 01:06:17;;;;;;;;;;;7.70;82.90;;;;;;5441443;26;19973;-64
2024/04/21 01:08:45;;;;;;;;;;;7.70;83.10;;;;;;5458392;26;19935;-62
2024/04/21 01:11:15;;;;;;;;;;;7.70;83.00;;;;;;5447919;26;19929;-63
2024/04/21 01:13:44;;;;;;;;;;;7.70;83.10;;;;;;5445143;26;20711;-63
2024/04/21 01:16:10;;;;;;;;;;;7.70;83.20;;;;;;5450581;26;20069;-63
2024/04/21 01:18:44;;;;;;;;;;;7.70;83.20;;;;;;5457776;26;19940;-64
2024/04/21 01:21:10;;;;;;;;;;;7.70;83.20;;;;;;5451844;26;19929;-63
2024/04/21 01:23:41;;;;;;;;;;;7.70;83.30;;;;;;5455798;26;19933;-63
2024/04/21 01:26:07;;;;;;;;;;;7.70;83.40;;;;;;5444729;26;19933;-66
2024/04/21 01:28:36;;;;;;;;;;;7.70;83.40;;;;;;5440164;26;22398;-63
2024/04/21 01:31:02;;;;;;;;;;;7.70;83.40;;;;;;5452186;26;20447;-62
2024/04/21 01:33:31;;;;;;;;;;;7.70;83.40;;;;;;5460996;26;19940;-63
2024/04/21 01:35:58;;;;;;;;;;;7.70;83.30;;;;;;5465729;26;19969;-62
2024/04/21 01:38:26;;;;;;;;;;;7.70;83.40;;;;;;5458311;26;19933;-62
2024/04/21 01:40:55;;;;;;;;;;;7.70;83.40;;;;;;5442357;26;20000;-62
2024/04/21 01:43:24;;;;;;;;;;;7.70;83.30;;;;;;5441678;26;20865;-62
2024/04/21 01:45:51;;;;;;;;;;;7.70;83.40;;;;;;5452388;26;19936;-63
2024/04/21 01:48:20;;;;;;;;;;;7.70;83.50;;;;;;5447869;26;19998;-63
2024/04/21 01:50:46;;;;;;;;;;;7.70;83.40;;;;;;5451442;26;19939;-62
2024/04/21 01:53:15;;;;;;;;;;;7.70;83.10;;;;;;5459642;26;19956;-62
2024/04/21 01:55:41;;;;;;;;;;;7.70;82.70;;;;;;5459889;26;19928;-63
2024/04/21 01:58:13;;;;;;;;;;;7.70;82.50;;;;;;5457715;26;19937;-63
2024/04/21 02:00:39;;;;;;;;;;;7.70;82.40;;;;;;5448091;26;19936;-62
2024/04/21 02:03:08;;;;;;;;;;;7.70;82.10;;;;;;5457005;26;20368;-63
2024/04/21 02:05:37;;;;;;;;;;;7.70;82.10;;;;;;5451493;26;19996;-62
2024/04/21 02:08:03;;;;;;;;;;;7.70;82.00;;;;;;5461539;26;19939;-64
2024/04/21 02:10:32;;;;;;;;;;;7.60;82.00;;;;;;5457314;26;19928;-62
2024/04/21 02:12:58;;;;;;;;;;;7.70;82.20;;;;;;5444436;26;20422;-61
2024/04/21 02:15:29;;;;;;;;;;;7.70;82.10;;;;;;5435654;26;19979;-62
2024/04/21 02:17:55;;;;;;;;;;;7.70;82.00;;;;;;5417124;26;19937;-61
2024/04/21 02:20:24;;;;;;;;;;;7.60;81.80;;;;;;5407935;26;20023;-61
2024/04/21 02:22:50;;;;;;;;;;;7.60;81.80;;;;;;5417636;26;19948;-62
2024/04/21 02:25:18;;;;;;;;;;;7.60;81.80;;;;;;5399567;26;19951;-62
2024/04/21 02:27:44;;;;;;;;;;;7.50;81.80;;;;;;5427602;26;19937;-63
2024/04/21 02:30:13;;;;;;;;;;;7.50;81.50;;;;;;5415798;26;20337;-63
2024/04/21 02:32:42;;;;;;;;;;;7.50;81.10;;;;;;5395142;26;19929;-63
2024/04/21 02:35:11;;;;;;;;;;;7.50;80.90;;;;;;5409248;26;20332;-63
2024/04/21 02:37:37;;;;;;;;;;;7.50;80.70;;;;;;5423069;26;20375;-63
2024/04/21 02:40:05;;;;;;;;;;;7.50;80.50;;;;;;5422957;26;20256;-63
2024/04/21 02:42:31;;;;;;;;;;;7.40;80.40;;;;;;5426330;26;19929;-63
2024/04/21 02:45:00;;;;;;;;;;;7.40;80.30;;;;;;5418872;26;19937;-62
2024/04/21 02:47:26;;;;;;;;;;;7.40;80.20;;;;;;5416714;26;19937;-64
2024/04/21 02:49:58;;;;;;;;;;;7.40;80.10;;;;;;5399939;26;20002;-61
2024/04/21 02:52:24;;;;;;;;;;;7.40;80.10;;;;;;5411284;26;19933;-63
2024/04/21 02:54:52;;;;;;;;;;;7.40;80.00;;;;;;5410387;26;20334;-62
2024/04/21 02:57:40;;;;;;;;;;;7.40;79.90;;;;;;5393663;26;19936;-62
2024/04/21 03:00:10;;;;;;;;;;;7.40;80.00;;;;;;5384658;26;19936;-62
2024/04/21 03:02:36;;;;;;;;;;;7.40;80.10;;;;;;5415405;26;19932;-63
2024/04/21 03:05:08;;;;;;;;;;;7.40;80.30;;;;;;5412292;26;19941;-62
2024/04/21 03:07:34;;;;;;;;;;;7.40;80.40;;;;;;5432298;26;19968;-62
2024/04/21 03:10:29;;;;;;;;;;;7.30;80.20;;;;;;5440218;26;19940;-63
2024/04/21 03:13:00;;;;;;;;;;;7.30;80.00;;;;;;5398553;26;20272;-62
2024/04/21 03:15:29;;;;;;;;;;;7.20;79.90;;;;;;5419999;26;19998;-62
2024/04/21 03:17:55;;;;;;;;;;;7.20;79.70;;;;;;5421098;26;20363;-63
2024/04/21 03:20:26;;;;;;;;;;;7.10;79.80;;;;;;5415933;26;20372;-62
2024/04/21 03:22:52;;;;;;;;;;;7.10;79.80;;;;;;5420835;26;19941;-63
2024/04/21 03:25:21;;;;;;;;;;;7.10;79.70;;;;;;5420446;26;19944;-63
2024/04/21 03:27:47;;;;;;;;;;;7.10;79.50;;;;;;5411882;26;19961;-63
2024/04/21 03:30:16;;;;;;;;;;;7.00;79.30;;;;;;5413310;26;19944;-62
2024/04/21 03:32:42;;;;;;;;;;;6.90;79.40;;;;;;5414494;26;19961;-61
2024/04/21 03:35:11;;;;;;;;;;;6.90;79.30;;;;;;5428745;26;19969;-64
2024/04/21 03:37:42;;;;;;;;;;;6.90;79.50;;;;;;5430142;26;20582;-63
2024/04/21 03:40:11;;;;;;;;;;;6.80;79.10;;;;;;5421421;26;19929;-61
2024/04/21 03:42:40;;;;;;;;;;;6.80;79.30;;;;;;5419026;26;20268;-63
2024/04/21 03:45:08;;;;;;;;;;;6.70;79.20;;;;;;5421118;26;19929;-62
2024/04/21 03:47:35;;;;;;;;;;;6.70;79.00;;;;;;5428429;26;19929;-62
2024/04/21 03:50:03;;;;;;;;;;;6.70;79.00;;;;;;5413092;26;19929;-62
2024/04/21 03:52:29;;;;;;;;;;;6.60;79.00;;;;;;5407628;26;19937;-63
2024/04/21 03:55:01;;;;;;;;;;;6.40;79.10;;;;;;5420535;26;19940;-63
2024/04/21 03:57:29;;;;;;;;;;;6.40;79.30;;;;;;5413187;26;19944;-63
2024/04/21 03:59:58;;;;;;;;;;;6.40;79.40;;;;;;5422434;26;19928;-63
2024/04/21 04:02:28;;;;;;;;;;;6.30;79.70;;;;;;5418066;26;19940;-62
2024/04/21 04:04:56;;;;;;;;;;;6.30;79.70;;;;;;5431407;26;19929;-63
2024/04/21 04:07:23;;;;;;;;;;;6.30;79.90;;;;;;5414120;26;20025;-62
2024/04/21 04:09:51;;;;;;;;;;;6.20;80.00;;;;;;5415626;26;19929;-63
2024/04/21 04:12:20;;;;;;;;;;;6.30;80.10;;;;;;5422839;26;20295;-63
2024/04/21 04:14:49;;;;;;;;;;;6.30;80.00;;;;;;5420543;26;19928;-63
2024/04/21 04:17:15;;;;;;;;;;;6.30;79.90;;;;;;5415089;26;20334;-63
2024/04/21 04:19:43;;;;;;;;;;;6.30;80.00;;;;;;5426782;26;20373;-62
2024/04/21 04:22:09;;;;;;;;;;;6.20;80.10;;;;;;5417883;26;19929;-64
2024/04/21 04:24:38;;;;;;;;;;;6.20;80.10;;;;;;5419463;26;19928;-63
2024/04/21 04:27:04;;;;;;;;;;;6.20;80.20;;;;;;5422930;26;19937;-63
2024/04/21 04:29:36;;;;;;;;;;;6.20;80.30;;;;;;5410134;26;20877;-63
2024/04/21 04:32:02;;;;;;;;;;;6.20;80.40;;;;;;5417155;26;20005;-60
2024/04/21 04:34:30;;;;;;;;;;;6.20;80.50;;;;;;5410586;26;20005;-61
2024/04/21 04:36:56;;;;;;;;;;;6.20;80.60;;;;;;5424537;26;19958;-60
2024/04/21 04:39:25;;;;;;;;;;;6.20;80.70;;;;;;5424785;26;19997;-60
2024/04/21 04:41:51;;;;;;;;;;;6.20;80.70;;;;;;5423284;26;19949;-58
2024/04/21 04:44:20;;;;;;;;;;;6.20;80.70;;;;;;5418366;26;19998;-60
2024/04/21 04:46:49;;;;;;;;;;;6.20;80.90;;;;;;5411013;26;19936;-60
2024/04/21 04:49:17;;;;;;;;;;;6.20;81.00;;;;;;5413495;26;19929;-60
2024/04/21 04:51:44;;;;;;;;;;;6.20;81.10;;;;;;5413501;26;19928;-61
2024/04/21 04:54:12;;;;;;;;;;;6.20;80.90;;;;;;5411249;26;19928;-61
2024/04/21 04:56:39;;;;;;;;;;;6.20;81.10;;;;;;5427201;26;19936;-59
2024/04/21 04:59:08;;;;;;;;;;;6.20;81.10;;;;;;5418261;26;19935;-60
2024/04/21 05:01:34;;;;;;;;;;;6.20;81.30;;;;;;5413391;26;19937;-59
2024/04/21 05:04:06;;;;;;;;;;;6.20;81.10;;;;;;5421120;26;20608;-59
2024/04/21 05:06:33;;;;;;;;;;;6.20;81.30;;;;;;5419458;26;19968;-60
2024/04/21 05:09:02;;;;;;;;;;;6.30;81.30;;;;;;5424947;26;20421;-60
2024/04/21 05:11:28;;;;;;;;;;;6.20;81.20;;;;;;5419860;26;19941;-61
2024/04/21 05:13:57;;;;;;;;;;;6.20;81.30;;;;;;5418241;26;19994;-59
2024/04/21 05:16:23;;;;;;;;;;;6.20;81.30;;;;;;5422981;26;19936;-59
2024/04/21 05:18:51;;;;;;;;;;;6.30;81.40;;;;;;5416838;26;19936;-60
2024/04/21 05:21:20;;;;;;;;;;;6.30;81.20;;;;;;5423831;26;19944;-60
2024/04/21 05:23:49;;;;;;;;;;;6.20;81.10;;;;;;5414149;26;20383;-60
2024/04/21 05:26:15;;;;;;;;;;;6.30;81.30;;;;;;5420995;26;19944;-60
2024/04/21 05:28:44;;;;;;;;;;;6.30;81.10;;;;;;5417375;26;19941;-60
2024/04/21 05:31:10;;;;;;;;;;;6.30;81.10;;;;;;5422852;26;20356;-61
2024/04/21 05:33:38;;;;;;;;;;;6.30;81.10;;;;;;5413312;26;19933;-59
2024/04/21 05:36:05;;;;;;;;;;;6.30;81.20;;;;;;5420135;26;19937;-60
2024/04/21 05:38:36;;;;;;;;;;;6.30;81.40;;;;;;5414756;26;19951;-60
2024/04/21 05:41:02;;;;;;;;;;;6.30;81.30;;;;;;5425290;26;19936;-60
2024/04/21 05:43:31;;;;;;;;;;;6.30;80.90;;;;;;5413358;26;19990;-60
2024/04/21 05:46:00;;;;;;;;;;;6.30;80.70;;;;;;5416898;26;20007;-60
2024/04/21 05:48:28;;;;;;;;;;;6.20;80.50;;;;;;5425534;26;20002;-65
2024/04/21 05:50:55;;;;;;;;;;;6.20;80.30;;;;;;5420820;26;19944;-60
2024/04/21 05:53:23;;;;;;;;;;;6.30;80.20;;;;;;5419024;26;19940;-61
2024/04/21 05:55:52;;;;;;;;;;;6.30;80.20;;;;;;5419759;26;19965;-60
2024/04/21 05:58:21;;;;;;;;;;;6.20;80.00;;;;;;5420671;26;19940;-59
2024/04/21 06:00:47;;;;;;;;;;;6.20;80.10;;;;;;5420345;26;19945;-61
2024/04/21 06:03:16;;;;;;;;;;;6.20;80.00;;;;;;5419127;26;19960;-59
2024/04/21 06:05:44;;;;;;;;;;;6.20;79.80;;;;;;5418161;26;20014;-60
2024/04/21 06:08:14;;;;;;;;;;;6.20;79.90;;;;;;5416015;26;19928;-61
2024/04/21 06:10:42;;;;;;;;;;;6.10;79.90;;;;;;5420906;26;19936;-61
2024/04/21 06:13:11;;;;;;;;;;;6.10;79.90;;;;;;5420377;26;19941;-61
2024/04/21 06:15:40;;;;;;;;;;;6.20;79.90;;;;;;5417391;26;19936;-61
2024/04/21 06:18:06;;;;;;;;;;;6.20;79.60;;;;;;5413311;26;19937;-61
2024/04/21 06:20:35;;;;;;;;;;;6.10;79.40;;;;;;5443110;26;19940;-62
2024/04/21 06:23:01;;;;;;;;;;;6.10;79.60;;;;;;5462646;26;19935;-60
2024/04/21 06:25:30;;;;;;;;;;;6.20;79.70;;;;;;5453974;26;21518;-60
2024/04/21 06:27:56;;;;;;;;;;;6.20;79.70;;;;;;5458849;26;19933;-60
2024/04/21 06:30:27;;;;;;;;;;;6.20;79.70;;;;;;5450011;26;19997;-61
2024/04/21 06:32:53;;;;;;;;;;;6.20;79.70;;;;;;5446038;26;19944;-61
2024/04/21 06:35:22;;;;;;;;;;;6.10;79.70;;;;;;5460300;26;19928;-60
2024/04/21 06:37:48;;;;;;;;;;;6.10;79.60;;;;;;5449146;26;19936;-60
2024/04/21 06:40:17;;;;;;;;;;;6.00;79.70;;;;;;5452310;26;20039;-60
2024/04/21 06:42:43;;;;;;;;;;;6.00;79.90;;;;;;5457103;26;20000;-60
2024/04/21 06:45:12;;;;;;;;;;;6.10;79.80;;;;;;5453513;26;19948;-60
2024/04/21 06:47:41;;;;;;;;;;;6.10;79.50;;;;;;5447236;26;19932;-60
2024/04/21 06:50:10;;;;;;;;;;;6.00;79.60;;;;;;5445986;26;20489;-66
2024/04/21 06:52:36;;;;;;;;;;;6.00;79.40;;;;;;5458229;26;19929;-64
2024/04/21 06:55:04;;;;;;;;;;;5.90;79.60;;;;;;5457328;26;19927;-63
2024/04/21 06:57:31;;;;;;;;;;;5.90;79.50;;;;;;5446906;26;19943;-63
2024/04/21 07:00:00;;;;;;;;;;;5.80;79.30;;;;;;5459276;26;19928;-63
2024/04/21 07:02:26;;;;;;;;;;;5.80;79.40;;;;;;5444860;26;19940;-61
2024/04/21 07:04:57;;;;;;;;;;;5.70;79.10;;;;;;5454470;26;20001;-63
2024/04/21 07:07:23;;;;;;;;;;;5.70;79.20;;;;;;5456118;26;19939;-63
2024/04/21 07:13:28;;;;;;;;;;;5.60;79.40;;;;;;5454589;26;19935;-63
2024/04/21 07:15:54;;;;;;;;;;;5.60;79.30;;;;;;5456973;26;19937;-63
2024/04/21 07:18:23;;;;;;;;;;;5.50;79.40;;;;;;5451223;26;20371;-63
2024/04/21 07:20:52;;;;;;;;;;;5.50;79.40;;;;;;5457367;26;19992;-63
2024/04/21 07:23:20;;;;;;;;;;;5.50;79.50;;;;;;5459698;26;19935;-62
2024/04/21 07:25:46;;;;;;;;;;;5.50;79.50;;;;;;5454138;26;19928;-63
2024/04/21 07:28:15;;;;;;;;;;;5.40;79.30;;;;;;5449889;26;20521;-63
2024/04/21 07:30:41;;;;;;;;;;;5.40;79.50;;;;;;5458467;26;19969;-62
2024/04/21 07:33:10;;;;;;;;;;;5.40;79.50;;;;;;5456301;26;19928;-60
2024/04/21 07:35:36;;;;;;;;;;;5.40;79.50;;;;;;5460570;26;19928;-62
2024/04/21 07:38:07;;;;;;;;;;;5.30;79.30;;;;;;5449533;26;19942;-61
2024/04/21 07:40:34;;;;;;;;;;;5.30;79.40;;;;;;5453142;26;19978;-62
2024/04/21 07:43:02;;;;;;;;;;;5.30;79.60;;;;;;5460968;26;19940;-63
2024/04/21 07:45:28;;;;;;;;;;;5.20;79.70;;;;;;5459774;26;19940;-63
2024/04/21 07:47:57;;;;;;;;;;;5.20;79.80;;;;;;5460247;26;20289;-62
2024/04/21 07:50:23;;;;;;;;;;;5.30;79.80;;;;;;5452500;26;20371;-63
2024/04/21 07:52:52;;;;;;;;;;;5.20;79.70;;;;;;5450043;26;19944;-61
2024/04/21 07:55:20;;;;;;;;;;;5.30;79.80;;;;;;5461058;26;19930;-64
2024/04/21 07:57:49;;;;;;;;;;;5.20;79.80;;;;;;5455032;26;20312;-63
2024/04/21 08:00:15;;;;;;;;;;;5.20;80.00;;;;;;5454623;26;19943;-62
2024/04/21 08:02:44;;;;;;;;;;;5.20;80.00;;;;;;5456263;26;19935;-63
2024/04/21 08:05:10;;;;;;;;;;;5.30;79.90;;;;;;5456904;26;19983;-63
2024/04/21 08:07:39;;;;;;;;;;;5.30;79.90;;;;;;5455216;26;21248;-63
2024/04/21 08:10:05;;;;;;;;;;;5.20;80.00;;;;;;5450474;26;19997;-63
2024/04/21 08:12:36;;;;;;;;;;;5.20;80.10;;;;;;5457922;26;19936;-64
2024/04/21 08:15:05;;;;;;;;;;;5.30;80.20;;;;;;5458825;26;19937;-63
2024/04/21 08:17:34;;;;;;;;;;;5.30;80.20;;;;;;5458673;26;20041;-63
2024/04/21 08:20:00;;;;;;;;;;;5.30;80.00;;;;;;5459768;26;19995;-63
2024/04/21 08:22:28;;;;;;;;;;;5.30;80.10;;;;;;5451996;26;19928;-63
2024/04/21 08:24:54;;;;;;;;;;;5.40;80.10;;;;;;5456045;26;19928;-63
2024/04/21 08:27:23;;;;;;;;;;;5.40;80.10;;;;;;5459219;26;19948;-63
2024/04/21 08:29:52;;;;;;;;;;;5.40;80.30;;;;;;5458288;26;19978;-63
2024/04/21 08:32:20;;;;;;;;;;;5.50;80.10;;;;;;5453929;26;19941;-63
2024/04/21 08:34:46;;;;;;;;;;;5.50;80.10;;;;;;5456117;26;20009;-63
2024/04/21 08:37:48;;;;;;;;;;;5.50;80.20;;;;;;5451280;26;20329;-62
2024/04/21 08:40:14;;;;;;;;;;;5.50;80.30;;;;;;5441728;26;19939;-61
2024/04/21 08:42:44;;;;;;;;;;;5.60;80.40;;;;;;5454978;26;19964;-62
2024/04/21 08:45:13;;;;;;;;;;;5.70;80.20;;;;;;5456100;26;19943;-61
2024/04/21 08:47:42;;;;;;;;;;;5.70;80.10;;;;;;5452967;26;19928;-63
2024/04/21 08:50:08;;;;;;;;;;;5.90;80.40;;;;;;5457206;26;20374;-65
2024/04/21 08:52:37;;;;;;;;;;;6.00;80.00;;;;;;5453549;26;19932;-64
2024/04/21 08:55:04;;;;;;;;;;;6.10;80.20;;;;;;5455993;26;20363;-63
2024/04/21 08:57:33;;;;;;;;;;;6.10;79.90;;;;;;5450232;26;19927;-63
2024/04/21 08:59:59;;;;;;;;;;;6.20;80.10;;;;;;5456379;26;19977;-62
2024/04/21 09:02:31;;;;;;;;;;;6.20;80.40;;;;;;5397870;26;1663478;-63
2024/04/21 09:04:57;;;;;;;;;;;6.20;80.40;;;;;;5445730;26;19936;-61
2024/04/21 09:07:26;;;;;;;;;;;6.40;80.40;;;;;;5454659;26;19936;-62
2024/04/21 09:09:53;;;;;;;;;;;6.40;80.30;;;;;;5448999;26;20255;-63
2024/04/21 09:12:22;;;;;;;;;;;6.50;80.40;;;;;;5458648;26;19928;-59
2024/04/21 09:15:14;;;;;;;;;;;6.60;80.30;;;;;;5461176;26;19938;-60
2024/04/21 09:17:50;;;;;;;;;;;6.70;79.90;;;;;;5441537;26;20288;-60
2024/04/21 09:20:16;;;;;;;;;;;6.80;79.60;;;;;;5462497;26;19935;-61
2024/04/21 09:22:45;;;;;;;;;;;7.00;79.30;;;;;;5459970;26;19964;-59
2024/04/21 09:25:11;;;;;;;;;;;7.00;79.50;;;;;;5457679;26;19939;-60
2024/04/21 09:27:40;;;;;;;;;;;7.20;79.50;;;;;;5455289;26;19997;-60
2024/04/21 09:30:06;;;;;;;;;;;7.20;79.20;;;;;;5463224;26;19928;-60
2024/04/21 09:32:35;;;;;;;;;;;7.40;78.60;;;;;;5454691;26;19940;-60
2024/04/21 09:35:04;;;;;;;;;;;7.60;79.10;;;;;;5455250;26;19935;-61
2024/04/21 09:37:33;;;;;;;;;;;7.70;78.70;;;;;;5450462;26;19936;-60
2024/04/21 09:39:59;;;;;;;;;;;7.90;78.90;;;;;;5451022;26;19972;-60
2024/04/21 09:46:06;;;;;;;;;;;8.10;79.00;;;;;;5453748;26;20000;-60
2024/04/21 09:48:33;;;;;;;;;;;8.30;78.90;;;;;;5449052;26;20000;-61
2024/04/21 09:51:05;;;;;;;;;;;8.40;78.60;;;;;;5457130;26;19929;-60
2024/04/21 09:53:32;;;;;;;;;;;8.50;78.00;;;;;;5457996;26;19937;-62
2024/04/21 09:56:04;;;;;;;;;;;8.60;77.80;;;;;;5457700;26;19927;-60
2024/04/21 09:58:33;;;;;;;;;;;8.70;77.40;;;;;;5449341;26;19940;-60
2024/04/21 10:01:03;;;;;;;;;;;8.90;77.00;;;;;;5449754;26;20325;-61
2024/04/21 10:03:31;;;;;;;;;;;8.90;76.30;;;;;;5460009;26;20009;-62
2024/04/21 10:06:00;;;;;;;;;;;8.90;76.10;;;;;;5447496;26;20367;-60
2024/04/21 10:08:30;;;;;;;;;;;8.80;75.60;;;;;;5440948;26;20367;-59
2024/04/21 10:10:59;;;;;;;;;;;8.60;75.00;;;;;;5450983;26;19935;-60
2024/04/21 10:13:26;;;;;;;;;;;8.60;75.00;;;;;;5453599;26;19927;-60
2024/04/21 10:15:55;;;;;;;;;;;8.70;75.20;;;;;;5453759;26;19944;-60
2024/04/21 10:18:23;;;;;;;;;;;8.80;75.10;;;;;;5451231;26;19978;-60
2024/04/21 10:20:52;;;;;;;;;;;8.90;74.60;;;;;;5450467;26;19936;-61
2024/04/21 10:23:19;;;;;;;;;;;9.00;74.10;;;;;;5458002;26;20001;-60
2024/04/21 10:25:50;;;;;;;;;;;9.00;74.00;;;;;;5456499;26;19960;-61
2024/04/21 10:28:24;;;;;;;;;;;9.10;73.80;;;;;;5451579;26;19935;-59
2024/04/21 10:30:53;;;;;;;;;;;9.10;73.50;;;;;;5458994;26;19936;-60
2024/04/21 10:33:27;;;;;;;;;;;9.20;73.00;;;;;;5456595;26;20372;-58
2024/04/21 10:35:56;;;;;;;;;;;9.20;73.00;;;;;;5450929;26;20371;-60
2024/04/21 10:38:22;;;;;;;;;;;9.20;72.60;;;;;;5466422;26;19931;-60
2024/04/21 10:40:53;;;;;;;;;;;9.20;72.50;;;;;;5462303;26;20000;-61
2024/04/21 10:43:21;;;;;;;;;;;9.30;72.10;;;;;;5463676;26;19940;-59
2024/04/21 10:45:50;;;;;;;;;;;9.40;72.00;;;;;;5450023;26;19928;-59
2024/04/21 10:48:17;;;;;;;;;;;9.60;71.80;;;;;;5455076;26;19928;-60
2024/04/21 10:50:45;;;;;;;;;;;9.70;71.00;;;;;;5454842;26;19936;-60
2024/04/21 10:53:12;;;;;;;;;;;9.90;70.90;;;;;;5454814;26;19939;-60
2024/04/21 10:55:40;;;;;;;;;;;10.00;70.50;;;;;;5454922;26;20267;-59
2024/04/21 10:58:09;;;;;;;;;;;10.10;70.30;;;;;;5457230;26;19931;-59
2024/04/21 11:00:39;;;;;;;;;;;10.20;68.90;;;;;;5449913;26;20363;-59
2024/04/21 11:03:06;;;;;;;;;;;10.30;68.60;;;;;;5463106;26;19928;-60
2024/04/21 11:08:55;;;;;;;;;;;10.70;67.70;;;;;;5447563;26;19975;-60
2024/04/21 11:11:22;;;;;;;;;;;10.70;67.10;;;;;;5462747;26;20009;-60
2024/04/21 11:13:53;;;;;;;;;;;10.90;66.60;;;;;;5461901;26;19941;-60
2024/04/21 11:16:20;;;;;;;;;;;10.60;66.00;;;;;;5462612;26;20393;-61
2024/04/21 11:18:49;;;;;;;;;;;10.40;66.30;;;;;;5456897;26;19929;-60
2024/04/21 11:21:15;;;;;;;;;;;10.30;66.40;;;;;;5463825;26;20370;-59
2024/04/21 11:23:44;;;;;;;;;;;10.20;65.90;;;;;;5461367;26;19937;-60
2024/04/21 11:26:10;;;;;;;;;;;10.20;66.30;;;;;;5462204;26;19935;-60
2024/04/21 11:28:38;;;;;;;;;;;10.10;65.80;;;;;;5459692;26;19952;-60
2024/04/21 11:31:07;;;;;;;;;;;10.00;66.00;;;;;;5451023;26;21063;-59
2024/04/21 11:33:36;;;;;;;;;;;10.10;66.50;;;;;;5464076;26;19947;-62
2024/04/21 11:36:03;;;;;;;;;;;10.20;66.20;;;;;;5462955;26;19992;-63
2024/04/21 11:38:31;;;;;;;;;;;10.20;66.00;;;;;;5466345;26;20404;-62
2024/04/21 11:40:58;;;;;;;;;;;10.40;65.70;;;;;;5466448;26;19928;-62
2024/04/21 11:43:28;;;;;;;;;;;10.50;65.20;;;;;;5467188;26;19928;-63
2024/04/21 11:45:58;;;;;;;;;;;10.60;65.20;;;;;;5456123;26;19939;-63
2024/04/21 11:48:31;;;;;;;;;;;10.50;64.80;;;;;;5465995;26;19939;-62
2024/04/21 11:50:57;;;;;;;;;;;10.40;65.10;;;;;;5465818;26;20472;-61
2024/04/21 11:53:27;;;;;;;;;;;10.40;64.60;;;;;;5459758;26;19936;-63
2024/04/21 11:55:53;;;;;;;;;;;10.20;64.40;;;;;;5450608;26;19927;-62
2024/04/21 11:58:23;;;;;;;;;;;10.30;64.80;;;;;;5455203;26;19928;-62
2024/04/21 12:00:49;;;;;;;;;;;10.50;64.70;;;;;;5460828;26;19928;-62
2024/04/21 12:03:18;;;;;;;;;;;10.60;64.50;;;;;;5461900;26;19940;-62
2024/04/21 12:05:47;;;;;;;;;;;10.90;64.30;;;;;;5463078;26;19939;-63
2024/04/21 12:08:16;;;;;;;;;;;10.80;63.60;;;;;;5465495;26;19935;-62
2024/04/21 12:10:42;;;;;;;;;;;10.80;62.50;;;;;;5461527;26;19935;-62
2024/04/21 12:13:11;;;;;;;;;;;10.70;62.60;;;;;;5462800;26;21984;-62
2024/04/21 12:15:37;;;;;;;;;;;10.90;63.10;;;;;;5464505;26;19929;-62
2024/04/21 12:18:09;;;;;;;;;;;11.00;62.80;;;;;;5462431;26;19936;-62
2024/04/21 12:20:36;;;;;;;;;;;11.00;62.50;;;;;;5463065;26;19929;-61
2024/04/21 12:23:09;;;;;;;;;;;11.00;62.80;;;;;;5465901;26;19928;-63
2024/04/21 12:25:37;;;;;;;;;;;11.00;63.00;;;;;;5462323;26;19938;-62
2024/04/21 12:28:05;;;;;;;;;;;11.00;62.30;;;;;;5464000;26;19969;-62
2024/04/21 12:30:34;;;;;;;;;;;11.10;62.40;;;;;;5465125;26;20367;-62
2024/04/21 12:33:02;;;;;;;;;;;11.00;62.10;;;;;;5461596;26;20271;-62
2024/04/21 12:35:31;;;;;;;;;;;11.00;61.40;;;;;;5461653;26;19929;-62
2024/04/21 12:37:57;;;;;;;;;;;10.90;61.50;;;;;;5466356;26;20347;-63
2024/04/21 12:40:28;;;;;;;;;;;10.80;61.70;;;;;;5465852;26;19928;-62
2024/04/21 12:42:54;;;;;;;;;;;10.90;61.60;;;;;;5464670;26;19935;-68
2024/04/21 12:45:23;;;;;;;;;;;11.00;61.90;;;;;;5464706;26;19961;-68
2024/04/21 12:47:49;;;;;;;;;;;11.00;61.50;;;;;;5464852;26;20351;-67
2024/04/21 12:50:18;;;;;;;;;;;11.00;61.30;;;;;;5463497;26;19928;-68
2024/04/21 12:52:46;;;;;;;;;;;10.90;61.30;;;;;;5459830;26;19935;-68
2024/04/21 12:55:15;;;;;;;;;;;10.90;61.00;;;;;;5464750;26;19936;-67
2024/04/21 12:57:44;;;;;;;;;;;10.90;61.10;;;;;;5464917;26;19972;-67
2024/04/21 13:00:13;;;;;;;;;;;10.90;60.80;;;;;;5464396;26;19931;-68
2024/04/21 13:02:39;;;;;;;;;;;10.90;60.40;;;;;;5462473;26;19928;-69
2024/04/21 13:05:08;;;;;;;;;;;10.80;60.60;;;;;;5465188;26;20552;-69
2024/04/21 13:07:34;;;;;;;;;;;10.90;60.40;;;;;;5463589;26;19928;-67
2024/04/21 13:10:03;;;;;;;;;;;10.90;60.50;;;;;;5465804;26;19947;-68
2024/04/21 13:12:29;;;;;;;;;;;10.90;60.40;;;;;;5462196;26;19928;-68
2024/04/21 13:15:00;;;;;;;;;;;10.90;59.90;;;;;;5464832;26;19929;-69
2024/04/21 13:17:26;;;;;;;;;;;10.90;59.90;;;;;;5461665;26;19937;-69
2024/04/21 13:19:55;;;;;;;;;;;10.90;59.50;;;;;;5463335;26;19933;-69
2024/04/21 13:22:21;;;;;;;;;;;10.80;59.60;;;;;;5464691;26;19939;-68
2024/04/21 13:24:51;;;;;;;;;;;10.90;59.20;;;;;;5452884;26;19936;-68
2024/04/21 13:27:17;;;;;;;;;;;10.80;59.30;;;;;;5460770;26;19933;-69
2024/04/21 13:29:45;;;;;;;;;;;10.90;59.40;;;;;;5465963;26;20293;-68
2024/04/21 13:32:14;;;;;;;;;;;11.00;59.30;;;;;;5463720;26;19948;-68
2024/04/21 13:34:43;;;;;;;;;;;11.00;59.60;;;;;;5461797;26;20394;-68
2024/04/21 13:37:09;;;;;;;;;;;11.00;59.00;;;;;;5463237;26;19952;-69
2024/04/21 13:39:37;;;;;;;;;;;10.90;58.60;;;;;;5465820;26;19928;-67
2024/04/21 13:42:04;;;;;;;;;;;10.90;58.80;;;;;;5463585;26;20064;-69
2024/04/21 13:44:32;;;;;;;;;;;11.00;59.30;;;;;;5463801;26;19979;-69
2024/04/21 13:46:59;;;;;;;;;;;11.00;59.10;;;;;;5464656;26;19929;-68
2024/04/21 13:49:30;;;;;;;;;;;10.90;58.30;;;;;;5465255;26;19928;-68
2024/04/21 13:51:56;;;;;;;;;;;10.80;58.10;;;;;;5457233;26;19992;-60
2024/04/21 13:54:25;;;;;;;;;;;10.70;57.30;;;;;;5462047;26;19936;-61
2024/04/21 13:56:51;;;;;;;;;;;10.70;57.60;;;;;;5459822;26;19932;-62
2024/04/21 13:59:20;;;;;;;;;;;10.70;57.50;;;;;;5463477;26;19943;-60
2024/04/21 14:01:46;;;;;;;;;;;10.60;57.30;;;;;;5461838;26;19997;-61
2024/04/21 14:04:14;;;;;;;;;;;10.70;57.60;;;;;;5464543;26;19940;-63
2024/04/21 14:06:43;;;;;;;;;;;10.60;57.50;;;;;;5463253;26;20014;-66
2024/04/21 14:09:12;;;;;;;;;;;10.60;57.80;;;;;;5462801;26;19928;-60
2024/04/21 14:11:38;;;;;;;;;;;10.50;58.30;;;;;;5460041;26;20363;-61
2024/04/21 14:14:06;;;;;;;;;;;10.50;58.40;;;;;;5466217;26;19927;-61
2024/04/21 14:16:33;;;;;;;;;;;10.40;57.70;;;;;;5463526;26;19938;-62
2024/04/21 14:19:01;;;;;;;;;;;10.40;57.80;;;;;;5463494;26;19936;-61
2024/04/21 14:21:27;;;;;;;;;;;10.40;57.50;;;;;;5461663;26;19928;-61
2024/04/21 14:23:59;;;;;;;;;;;10.30;57.10;;;;;;5461989;26;19947;-62
2024/04/21 14:26:25;;;;;;;;;;;10.40;57.40;;;;;;5460088;26;20364;-61
2024/04/21 14:28:53;;;;;;;;;;;10.40;57.20;;;;;;5461493;26;19943;-61
2024/04/21 14:31:19;;;;;;;;;;;10.50;57.00;;;;;;5459703;26;19928;-61
2024/04/21 14:33:49;;;;;;;;;;;10.40;57.10;;;;;;5460972;26;19928;-61
2024/04/21 14:36:15;;;;;;;;;;;10.40;56.90;;;;;;5462171;26;20003;-61
2024/04/21 14:38:44;;;;;;;;;;;10.40;57.10;;;;;;5460714;26;19940;-63
2024/04/21 14:41:14;;;;;;;;;;;10.40;57.20;;;;;;5462067;26;20709;-62
2024/04/21 14:43:43;;;;;;;;;;;10.40;57.90;;;;;;5463897;26;19940;-62